sensor_id;sensor_type;location;lat;lon;timestamp;pressure;altitude;pressure_sealevel;temperature;humidity
63281;BME280;49406;51.044;3.766;2023-06-14T00:02:28;101400.41;;;18.65;80.80
63281;BME280;49406;51.044;3.766;2023-06-14T00:05:03;101402.23;;;18.59;81.18
63281;BME280;49406;51.044;3.766;2023-06-14T00:07:40;101402.44;;;18.57;82.48
63281;BME280;49406;51.044;3.766;2023-06-14T00:10:16;101403.05;;;18.67;81.64
63281;BME280;49406;51.044;3.766;2023-06-14T00:12:51;101403.43;;;18.62;81.37
63281;BME280;49406;51.044;3.766;2023-06-14T00:15:25;101403.99;;;18.59;82.77
63281;BME280;49406;51.044;3.766;2023-06-14T00:18:01;101402.27;;;18.57;83.14
63281;BME280;49406;51.044;3.766;2023-06-14T00:20:36;101402.34;;;18.53;82.17
63281;BME280;49406;51.044;3.766;2023-06-14T00:23:10;101401.73;;;18.46;81.98
63281;BME280;49406;51.044;3.766;2023-06-14T00:25:45;101408.79;;;18.37;82.54
63281;BME280;49406;51.044;3.766;2023-06-14T00:28:19;101408.33;;;18.31;83.34
63281;BME280;49406;51.044;3.766;2023-06-14T00:30:54;101409.27;;;18.28;84.41
63281;BME280;49406;51.044;3.766;2023-06-14T00:33:29;101410.55;;;18.38;84.37
63281;BME280;49406;51.044;3.766;2023-06-14T00:36:04;101408.27;;;18.36;83.63
63281;BME280;49406;51.044;3.766;2023-06-14T00:38:39;101404.60;;;18.33;83.76
63281;BME280;49406;51.044;3.766;2023-06-14T00:41:13;101410.33;;;18.28;84.84
63281;BME280;49406;51.044;3.766;2023-06-14T00:43:48;101410.02;;;18.24;84.54
63281;BME280;49406;51.044;3.766;2023-06-14T00:46:22;101412.21;;;18.21;85.18
63281;BME280;49406;51.044;3.766;2023-06-14T00:48:58;101405.72;;;18.16;85.16
63281;BME280;49406;51.044;3.766;2023-06-14T00:51:33;101405.05;;;18.13;85.65
63281;BME280;49406;51.044;3.766;2023-06-14T00:54:10;101408.26;;;18.12;85.05
63281;BME280;49406;51.044;3.766;2023-06-14T00:56:45;101410.66;;;18.17;86.12
63281;BME280;49406;51.044;3.766;2023-06-14T00:59:20;101408.19;;;18.17;85.66
63281;BME280;49406;51.044;3.766;2023-06-14T01:01:54;101406.51;;;18.10;85.35
63281;BME280;49406;51.044;3.766;2023-06-14T01:04:29;101405.72;;;18.03;85.49
63281;BME280;49406;51.044;3.766;2023-06-14T01:07:09;101412.34;;;17.97;85.54
63281;BME280;49406;51.044;3.766;2023-06-14T01:09:58;101411.33;;;17.94;85.51
63281;BME280;49406;51.044;3.766;2023-06-14T01:12:39;101408.94;;;17.88;85.81
63281;BME280;49406;51.044;3.766;2023-06-14T01:15:19;101412.55;;;17.82;85.33
63281;BME280;49406;51.044;3.766;2023-06-14T01:17:55;101410.95;;;17.82;86.21
63281;BME280;49406;51.044;3.766;2023-06-14T01:20:36;101410.58;;;17.85;84.94
63281;BME280;49406;51.044;3.766;2023-06-14T01:23:10;101413.45;;;17.81;85.24
63281;BME280;49406;51.044;3.766;2023-06-14T01:25:46;101411.06;;;17.74;85.45
63281;BME280;49406;51.044;3.766;2023-06-14T01:28:21;101411.85;;;17.65;85.41
63281;BME280;49406;51.044;3.766;2023-06-14T01:30:56;101413.29;;;17.61;85.75
63281;BME280;49406;51.044;3.766;2023-06-14T01:33:34;101415.65;;;17.57;85.84
63281;BME280;49406;51.044;3.766;2023-06-14T01:36:09;101417.44;;;17.55;86.41
63281;BME280;49406;51.044;3.766;2023-06-14T01:38:45;101419.06;;;17.52;85.88
63281;BME280;49406;51.044;3.766;2023-06-14T01:41:22;101415.92;;;17.48;85.54
63281;BME280;49406;51.044;3.766;2023-06-14T01:43:58;101413.41;;;17.52;85.60
63281;BME280;49406;51.044;3.766;2023-06-14T01:46:33;101412.05;;;17.46;85.29
63281;BME280;49406;51.044;3.766;2023-06-14T01:49:07;101414.23;;;17.41;85.71
63281;BME280;49406;51.044;3.766;2023-06-14T01:51:42;101411.30;;;17.35;86.02
63281;BME280;49406;51.044;3.766;2023-06-14T01:54:17;101413.52;;;17.25;86.42
63281;BME280;49406;51.044;3.766;2023-06-14T01:56:51;101419.77;;;17.19;86.61
63281;BME280;49406;51.044;3.766;2023-06-14T01:59:26;101415.63;;;17.07;86.81
63281;BME280;49406;51.044;3.766;2023-06-14T02:02:01;101415.00;;;17.01;86.79
63281;BME280;49406;51.044;3.766;2023-06-14T02:04:36;101414.16;;;16.94;86.84
63281;BME280;49406;51.044;3.766;2023-06-14T02:07:10;101415.81;;;16.88;86.79
63281;BME280;49406;51.044;3.766;2023-06-14T02:09:45;101418.35;;;16.80;87.26
63281;BME280;49406;51.044;3.766;2023-06-14T02:12:19;101422.84;;;16.72;87.32
63281;BME280;49406;51.044;3.766;2023-06-14T02:14:54;101423.39;;;16.67;88.11
63281;BME280;49406;51.044;3.766;2023-06-14T02:17:29;101420.53;;;16.73;88.00
63281;BME280;49406;51.044;3.766;2023-06-14T02:20:05;101417.73;;;16.70;88.47
63281;BME280;49406;51.044;3.766;2023-06-14T02:22:40;101419.15;;;16.69;87.94
63281;BME280;49406;51.044;3.766;2023-06-14T02:25:15;101420.04;;;16.65;87.89
63281;BME280;49406;51.044;3.766;2023-06-14T02:27:50;101422.04;;;16.56;87.95
63281;BME280;49406;51.044;3.766;2023-06-14T02:30:23;101419.98;;;16.47;87.93
63281;BME280;49406;51.044;3.766;2023-06-14T02:32:57;101418.09;;;16.39;88.15
63281;BME280;49406;51.044;3.766;2023-06-14T02:35:32;101415.15;;;16.30;88.27
63281;BME280;49406;51.044;3.766;2023-06-14T02:38:07;101411.86;;;16.21;88.50
63281;BME280;49406;51.044;3.766;2023-06-14T02:40:42;101412.09;;;16.10;88.87
63281;BME280;49406;51.044;3.766;2023-06-14T02:43:16;101415.14;;;16.03;89.11
63281;BME280;49406;51.044;3.766;2023-06-14T02:45:51;101413.95;;;15.95;89.78
63281;BME280;49406;51.044;3.766;2023-06-14T02:48:25;101419.23;;;15.91;89.84
63281;BME280;49406;51.044;3.766;2023-06-14T02:51:00;101418.56;;;15.87;89.38
63281;BME280;49406;51.044;3.766;2023-06-14T02:53:35;101422.08;;;15.88;89.29
63281;BME280;49406;51.044;3.766;2023-06-14T02:56:10;101421.52;;;15.95;89.03
63281;BME280;49406;51.044;3.766;2023-06-14T02:58:44;101421.34;;;15.94;89.89
63281;BME280;49406;51.044;3.766;2023-06-14T03:01:22;101424.51;;;15.99;90.17
63281;BME280;49406;51.044;3.766;2023-06-14T03:03:57;101425.39;;;16.00;89.69
63281;BME280;49406;51.044;3.766;2023-06-14T03:06:32;101425.40;;;15.99;89.14
63281;BME280;49406;51.044;3.766;2023-06-14T03:09:07;101429.98;;;15.98;88.12
63281;BME280;49406;51.044;3.766;2023-06-14T03:11:42;101427.00;;;15.96;87.37
63281;BME280;49406;51.044;3.766;2023-06-14T03:14:17;101431.75;;;15.97;87.52
63281;BME280;49406;51.044;3.766;2023-06-14T03:16:52;101433.52;;;15.92;87.96
63281;BME280;49406;51.044;3.766;2023-06-14T03:19:28;101433.90;;;15.87;87.38
63281;BME280;49406;51.044;3.766;2023-06-14T03:22:03;101438.50;;;15.84;87.05
63281;BME280;49406;51.044;3.766;2023-06-14T03:24:38;101440.10;;;15.83;87.30
63281;BME280;49406;51.044;3.766;2023-06-14T03:27:12;101442.40;;;15.80;87.01
63281;BME280;49406;51.044;3.766;2023-06-14T03:29:47;101439.23;;;15.76;86.77
63281;BME280;49406;51.044;3.766;2023-06-14T03:32:22;101440.30;;;15.72;87.10
63281;BME280;49406;51.044;3.766;2023-06-14T03:34:56;101443.66;;;15.72;86.26
63281;BME280;49406;51.044;3.766;2023-06-14T03:37:31;101446.46;;;15.75;85.58
63281;BME280;49406;51.044;3.766;2023-06-14T03:40:07;101448.00;;;15.87;84.84
63281;BME280;49406;51.044;3.766;2023-06-14T03:42:42;101452.20;;;15.94;84.12
63281;BME280;49406;51.044;3.766;2023-06-14T03:45:17;101449.75;;;15.95;83.58
63281;BME280;49406;51.044;3.766;2023-06-14T03:47:51;101457.14;;;16.00;83.20
63281;BME280;49406;51.044;3.766;2023-06-14T03:50:26;101459.23;;;16.02;83.12
63281;BME280;49406;51.044;3.766;2023-06-14T03:53:01;101458.85;;;16.07;82.30
63281;BME280;49406;51.044;3.766;2023-06-14T03:55:36;101460.26;;;16.08;81.76
63281;BME280;49406;51.044;3.766;2023-06-14T03:58:10;101459.19;;;16.10;81.23
63281;BME280;49406;51.044;3.766;2023-06-14T04:00:46;101459.69;;;16.18;80.65
63281;BME280;49406;51.044;3.766;2023-06-14T04:03:21;101460.89;;;16.22;79.89
63281;BME280;49406;51.044;3.766;2023-06-14T04:06:03;101462.11;;;16.24;79.34
63281;BME280;49406;51.044;3.766;2023-06-14T04:08:38;101465.80;;;16.28;78.71
63281;BME280;49406;51.044;3.766;2023-06-14T04:11:14;101460.85;;;16.32;77.90
63281;BME280;49406;51.044;3.766;2023-06-14T04:13:49;101467.17;;;16.36;77.15
63281;BME280;49406;51.044;3.766;2023-06-14T04:16:24;101465.72;;;16.41;76.92
63281;BME280;49406;51.044;3.766;2023-06-14T04:18:58;101471.09;;;16.60;75.70
63281;BME280;49406;51.044;3.766;2023-06-14T04:21:33;101472.48;;;16.68;74.88
63281;BME280;49406;51.044;3.766;2023-06-14T04:24:08;101475.13;;;16.69;74.33
63281;BME280;49406;51.044;3.766;2023-06-14T04:26:46;101474.73;;;16.73;73.75
63281;BME280;49406;51.044;3.766;2023-06-14T04:29:22;101474.72;;;16.75;73.59
63281;BME280;49406;51.044;3.766;2023-06-14T04:31:57;101477.50;;;16.79;73.64
63281;BME280;49406;51.044;3.766;2023-06-14T04:34:33;101481.23;;;16.78;73.69
63281;BME280;49406;51.044;3.766;2023-06-14T04:37:10;101483.71;;;16.76;73.88
63281;BME280;49406;51.044;3.766;2023-06-14T04:39:46;101484.59;;;16.78;73.61
63281;BME280;49406;51.044;3.766;2023-06-14T04:42:21;101487.89;;;16.86;73.14
63281;BME280;49406;51.044;3.766;2023-06-14T04:44:58;101488.36;;;16.92;72.48
63281;BME280;49406;51.044;3.766;2023-06-14T04:47:33;101484.61;;;16.97;72.24
63281;BME280;49406;51.044;3.766;2023-06-14T04:50:08;101487.21;;;17.04;71.00
63281;BME280;49406;51.044;3.766;2023-06-14T04:52:43;101489.97;;;17.12;70.50
63281;BME280;49406;51.044;3.766;2023-06-14T04:55:17;101494.89;;;17.17;70.62
63281;BME280;49406;51.044;3.766;2023-06-14T04:57:53;101495.55;;;17.22;70.02
63281;BME280;49406;51.044;3.766;2023-06-14T05:00:27;101495.67;;;17.26;70.07
63281;BME280;49406;51.044;3.766;2023-06-14T05:03:03;101497.07;;;17.30;70.27
63281;BME280;49406;51.044;3.766;2023-06-14T05:05:38;101499.16;;;17.34;70.44
63281;BME280;49406;51.044;3.766;2023-06-14T05:08:13;101503.35;;;17.37;69.82
63281;BME280;49406;51.044;3.766;2023-06-14T05:10:48;101501.35;;;17.43;69.74
63281;BME280;49406;51.044;3.766;2023-06-14T05:13:23;101506.60;;;17.49;69.57
63281;BME280;49406;51.044;3.766;2023-06-14T05:15:57;101503.49;;;17.58;68.89
63281;BME280;49406;51.044;3.766;2023-06-14T05:18:32;101510.12;;;17.71;68.16
63281;BME280;49406;51.044;3.766;2023-06-14T05:21:08;101509.98;;;17.85;67.22
63281;BME280;49406;51.044;3.766;2023-06-14T05:23:44;101514.40;;;17.99;66.57
63281;BME280;49406;51.044;3.766;2023-06-14T05:26:20;101516.58;;;18.10;67.00
63281;BME280;49406;51.044;3.766;2023-06-14T05:28:55;101519.04;;;18.25;66.02
63281;BME280;49406;51.044;3.766;2023-06-14T05:31:30;101520.19;;;18.59;65.05
63281;BME280;49406;51.044;3.766;2023-06-14T05:34:06;101517.23;;;19.25;63.29
63281;BME280;49406;51.044;3.766;2023-06-14T05:36:40;101521.19;;;19.91;61.43
63281;BME280;49406;51.044;3.766;2023-06-14T05:39:15;101525.80;;;20.52;57.32
63281;BME280;49406;51.044;3.766;2023-06-14T05:41:50;101522.67;;;20.96;55.21
63281;BME280;49406;51.044;3.766;2023-06-14T05:44:24;101522.79;;;21.28;55.03
63281;BME280;49406;51.044;3.766;2023-06-14T05:46:59;101524.63;;;21.73;54.66
63281;BME280;49406;51.044;3.766;2023-06-14T05:49:32;101533.41;;;22.10;51.61
63281;BME280;49406;51.044;3.766;2023-06-14T05:52:08;101530.86;;;22.42;51.99
63281;BME280;49406;51.044;3.766;2023-06-14T05:54:43;101528.45;;;22.80;49.78
63281;BME280;49406;51.044;3.766;2023-06-14T05:57:18;101527.86;;;23.10;50.17
63281;BME280;49406;51.044;3.766;2023-06-14T05:59:52;101530.52;;;23.58;49.04
63281;BME280;49406;51.044;3.766;2023-06-14T06:02:27;101529.29;;;23.97;48.08
63281;BME280;49406;51.044;3.766;2023-06-14T06:05:00;101537.71;;;24.31;46.14
63281;BME280;49406;51.044;3.766;2023-06-14T06:07:35;101540.10;;;24.48;44.24
63281;BME280;49406;51.044;3.766;2023-06-14T06:10:11;101541.42;;;24.51;43.74
63281;BME280;49406;51.044;3.766;2023-06-14T06:12:45;101539.96;;;24.47;43.98
63281;BME280;49406;51.044;3.766;2023-06-14T06:15:21;101539.13;;;24.50;43.48
63281;BME280;49406;51.044;3.766;2023-06-14T06:17:56;101543.48;;;24.67;44.21
63281;BME280;49406;51.044;3.766;2023-06-14T06:20:31;101541.42;;;25.01;43.67
63281;BME280;49406;51.044;3.766;2023-06-14T06:23:05;101544.79;;;25.36;42.30
63281;BME280;49406;51.044;3.766;2023-06-14T06:25:42;101544.59;;;25.45;42.19
63281;BME280;49406;51.044;3.766;2023-06-14T06:28:16;101545.42;;;25.72;42.26
63281;BME280;49406;51.044;3.766;2023-06-14T06:30:51;101551.48;;;25.93;40.81
63281;BME280;49406;51.044;3.766;2023-06-14T06:33:26;101549.66;;;25.81;40.24
63281;BME280;49406;51.044;3.766;2023-06-14T06:36:01;101548.72;;;25.86;40.72
63281;BME280;49406;51.044;3.766;2023-06-14T06:38:35;101548.14;;;25.99;40.59
63281;BME280;49406;51.044;3.766;2023-06-14T06:41:10;101551.34;;;26.12;40.18
63281;BME280;49406;51.044;3.766;2023-06-14T06:43:44;101551.03;;;26.34;40.66
63281;BME280;49406;51.044;3.766;2023-06-14T06:46:19;101549.84;;;26.67;40.78
63281;BME280;49406;51.044;3.766;2023-06-14T06:48:54;101552.04;;;27.04;39.56
63281;BME280;49406;51.044;3.766;2023-06-14T06:51:29;101550.23;;;27.18;39.09
63281;BME280;49406;51.044;3.766;2023-06-14T06:54:04;101551.36;;;27.10;37.94
63281;BME280;49406;51.044;3.766;2023-06-14T06:56:39;101547.66;;;27.23;38.84
63281;BME280;49406;51.044;3.766;2023-06-14T06:59:13;101548.23;;;27.40;37.97
63281;BME280;49406;51.044;3.766;2023-06-14T07:01:50;101550.27;;;27.53;38.01
63281;BME280;49406;51.044;3.766;2023-06-14T07:04:24;101554.00;;;27.72;37.93
63281;BME280;49406;51.044;3.766;2023-06-14T07:06:59;101556.95;;;27.88;37.32
63281;BME280;49406;51.044;3.766;2023-06-14T07:09:33;101557.84;;;27.95;36.02
63281;BME280;49406;51.044;3.766;2023-06-14T07:12:08;101556.86;;;27.89;34.87
63281;BME280;49406;51.044;3.766;2023-06-14T07:14:43;101560.42;;;27.82;34.61
63281;BME280;49406;51.044;3.766;2023-06-14T07:17:18;101561.30;;;27.80;34.58
63281;BME280;49406;51.044;3.766;2023-06-14T07:19:53;101564.10;;;27.74;35.02
63281;BME280;49406;51.044;3.766;2023-06-14T07:22:28;101561.47;;;27.87;34.84
63281;BME280;49406;51.044;3.766;2023-06-14T07:25:02;101561.27;;;27.83;34.50
63281;BME280;49406;51.044;3.766;2023-06-14T07:27:37;101563.23;;;27.83;35.29
63281;BME280;49406;51.044;3.766;2023-06-14T07:30:13;101563.27;;;28.07;35.84
63281;BME280;49406;51.044;3.766;2023-06-14T07:32:47;101565.63;;;28.53;34.69
63281;BME280;49406;51.044;3.766;2023-06-14T07:35:23;101567.85;;;28.77;34.27
63281;BME280;49406;51.044;3.766;2023-06-14T07:37:57;101569.36;;;28.92;34.13
63281;BME280;49406;51.044;3.766;2023-06-14T07:40:32;101573.80;;;29.13;33.10
63281;BME280;49406;51.044;3.766;2023-06-14T07:43:06;101574.18;;;29.18;32.96
63281;BME280;49406;51.044;3.766;2023-06-14T07:45:41;101575.47;;;29.09;32.70
63281;BME280;49406;51.044;3.766;2023-06-14T07:48:15;101572.73;;;29.09;33.35
63281;BME280;49406;51.044;3.766;2023-06-14T07:50:50;101577.52;;;29.38;34.14
63281;BME280;49406;51.044;3.766;2023-06-14T07:53:25;101578.03;;;29.84;33.53
63281;BME280;49406;51.044;3.766;2023-06-14T07:55:59;101581.29;;;30.28;32.70
63281;BME280;49406;51.044;3.766;2023-06-14T07:58:34;101586.48;;;30.37;32.57
63281;BME280;49406;51.044;3.766;2023-06-14T08:01:10;101587.64;;;30.55;30.95
63281;BME280;49406;51.044;3.766;2023-06-14T08:03:44;101588.58;;;30.23;31.30
63281;BME280;49406;51.044;3.766;2023-06-14T08:06:19;101585.53;;;30.32;31.10
63281;BME280;49406;51.044;3.766;2023-06-14T08:08:54;101587.74;;;30.48;31.59
63281;BME280;49406;51.044;3.766;2023-06-14T08:11:28;101590.17;;;30.55;30.42
63281;BME280;49406;51.044;3.766;2023-06-14T08:14:03;101587.39;;;30.48;30.63
63281;BME280;49406;51.044;3.766;2023-06-14T08:16:37;101586.66;;;30.40;30.40
63281;BME280;49406;51.044;3.766;2023-06-14T08:19:12;101584.16;;;30.28;30.30
63281;BME280;49406;51.044;3.766;2023-06-14T08:21:47;101582.93;;;30.27;29.80
63281;BME280;49406;51.044;3.766;2023-06-14T08:24:22;101584.05;;;30.06;29.25
63281;BME280;49406;51.044;3.766;2023-06-14T08:26:58;101581.34;;;29.88;30.10
63281;BME280;49406;51.044;3.766;2023-06-14T08:29:34;101585.73;;;29.90;30.93
63281;BME280;49406;51.044;3.766;2023-06-14T08:32:09;101584.83;;;30.23;30.40
63281;BME280;49406;51.044;3.766;2023-06-14T08:34:44;101590.52;;;30.44;31.65
63281;BME280;49406;51.044;3.766;2023-06-14T08:37:18;101590.89;;;30.84;30.53
63281;BME280;49406;51.044;3.766;2023-06-14T08:39:53;101589.90;;;31.07;30.50
63281;BME280;49406;51.044;3.766;2023-06-14T08:42:29;101585.71;;;31.35;30.08
63281;BME280;49406;51.044;3.766;2023-06-14T08:45:05;101583.60;;;31.66;30.00
63281;BME280;49406;51.044;3.766;2023-06-14T08:47:40;101587.55;;;31.82;29.50
63281;BME280;49406;51.044;3.766;2023-06-14T08:50:15;101591.06;;;31.86;29.33
63281;BME280;49406;51.044;3.766;2023-06-14T08:52:54;101588.84;;;31.74;28.91
63281;BME280;49406;51.044;3.766;2023-06-14T08:55:31;101589.15;;;31.93;29.07
63281;BME280;49406;51.044;3.766;2023-06-14T08:58:06;101583.94;;;32.00;28.86
63281;BME280;49406;51.044;3.766;2023-06-14T09:00:42;101586.90;;;32.25;28.25
63281;BME280;49406;51.044;3.766;2023-06-14T09:03:17;101588.41;;;32.29;27.50
63281;BME280;49406;51.044;3.766;2023-06-14T09:05:52;101594.41;;;32.18;27.76
63281;BME280;49406;51.044;3.766;2023-06-14T09:08:28;101590.70;;;32.25;28.14
63281;BME280;49406;51.044;3.766;2023-06-14T09:11:03;101588.70;;;32.43;27.17
63281;BME280;49406;51.044;3.766;2023-06-14T09:13:40;101595.23;;;32.50;26.55
63281;BME280;49406;51.044;3.766;2023-06-14T09:16:15;101594.64;;;32.28;27.09
63281;BME280;49406;51.044;3.766;2023-06-14T09:18:49;101597.58;;;32.40;27.51
63281;BME280;49406;51.044;3.766;2023-06-14T09:21:25;101596.34;;;32.67;26.90
63281;BME280;49406;51.044;3.766;2023-06-14T09:24:00;101600.93;;;32.56;25.45
63281;BME280;49406;51.044;3.766;2023-06-14T09:26:39;101597.04;;;32.40;25.28
63281;BME280;49406;51.044;3.766;2023-06-14T09:29:15;101599.77;;;32.27;24.66
63281;BME280;49406;51.044;3.766;2023-06-14T09:31:50;101601.74;;;32.40;25.15
63281;BME280;49406;51.044;3.766;2023-06-14T09:34:25;101603.80;;;32.37;25.33
63281;BME280;49406;51.044;3.766;2023-06-14T09:37:00;101608.71;;;32.49;25.65
63281;BME280;49406;51.044;3.766;2023-06-14T09:39:34;101601.23;;;32.35;24.79
63281;BME280;49406;51.044;3.766;2023-06-14T09:42:17;101605.09;;;32.23;25.38
63281;BME280;49406;51.044;3.766;2023-06-14T09:44:53;101604.69;;;32.29;25.17
63281;BME280;49406;51.044;3.766;2023-06-14T09:47:28;101595.61;;;32.40;24.72
63281;BME280;49406;51.044;3.766;2023-06-14T09:50:03;101608.08;;;32.27;24.23
63281;BME280;49406;51.044;3.766;2023-06-14T09:52:38;101612.67;;;32.26;23.91
63281;BME280;49406;51.044;3.766;2023-06-14T09:55:13;101609.36;;;32.01;24.26
63281;BME280;49406;51.044;3.766;2023-06-14T09:57:47;101609.58;;;31.90;24.38
63281;BME280;49406;51.044;3.766;2023-06-14T10:00:23;101606.33;;;31.85;23.73
63281;BME280;49406;51.044;3.766;2023-06-14T10:03:03;101607.66;;;31.68;23.85
63281;BME280;49406;51.044;3.766;2023-06-14T10:05:43;101611.48;;;31.33;24.72
63281;BME280;49406;51.044;3.766;2023-06-14T10:08:19;101612.22;;;31.52;24.87
63281;BME280;49406;51.044;3.766;2023-06-14T10:10:58;101612.70;;;31.60;24.87
63281;BME280;49406;51.044;3.766;2023-06-14T10:13:34;101607.14;;;31.86;24.45
63281;BME280;49406;51.044;3.766;2023-06-14T10:16:09;101609.41;;;31.95;24.42
63281;BME280;49406;51.044;3.766;2023-06-14T10:19:02;101613.98;;;31.82;23.86
63281;BME280;49406;51.044;3.766;2023-06-14T10:21:51;101607.77;;;31.85;23.98
63281;BME280;49406;51.044;3.766;2023-06-14T10:24:32;101610.36;;;32.15;23.55
63281;BME280;49406;51.044;3.766;2023-06-14T10:27:08;101608.35;;;32.15;23.30
63281;BME280;49406;51.044;3.766;2023-06-14T10:30:03;101604.71;;;31.98;23.57
63281;BME280;49406;51.044;3.766;2023-06-14T10:33:04;101605.79;;;31.98;23.76
63281;BME280;49406;51.044;3.766;2023-06-14T10:35:39;101603.69;;;31.81;23.02
63281;BME280;49406;51.044;3.766;2023-06-14T10:38:14;101608.79;;;31.54;22.85
63281;BME280;49406;51.044;3.766;2023-06-14T10:40:53;101610.25;;;31.30;23.64
63281;BME280;49406;51.044;3.766;2023-06-14T10:43:29;101608.65;;;31.46;24.22
63281;BME280;49406;51.044;3.766;2023-06-14T10:46:20;101607.91;;;31.51;24.34
63281;BME280;49406;51.044;3.766;2023-06-14T10:48:58;101601.86;;;31.39;25.37
63281;BME280;49406;51.044;3.766;2023-06-14T10:51:40;101603.64;;;31.34;25.33
63281;BME280;49406;51.044;3.766;2023-06-14T10:54:23;101602.65;;;31.46;24.10
63281;BME280;49406;51.044;3.766;2023-06-14T10:56:59;101600.87;;;31.64;24.04
63281;BME280;49406;51.044;3.766;2023-06-14T10:59:34;101605.79;;;31.85;23.93
63281;BME280;49406;51.044;3.766;2023-06-14T11:02:27;101606.37;;;31.95;23.74
63281;BME280;49406;51.044;3.766;2023-06-14T11:05:10;101605.39;;;32.06;24.45
63281;BME280;49406;51.044;3.766;2023-06-14T11:07:58;101604.60;;;32.25;23.34
63281;BME280;49406;51.044;3.766;2023-06-14T11:10:38;101605.73;;;32.17;23.47
63281;BME280;49406;51.044;3.766;2023-06-14T11:13:13;101607.10;;;32.26;22.92
63281;BME280;49406;51.044;3.766;2023-06-14T11:15:50;101605.09;;;32.26;22.63
63281;BME280;49406;51.044;3.766;2023-06-14T11:18:26;101598.34;;;32.35;23.38
63281;BME280;49406;51.044;3.766;2023-06-14T11:21:02;101598.31;;;32.37;23.45
63281;BME280;49406;51.044;3.766;2023-06-14T11:23:37;101599.77;;;32.47;23.14
63281;BME280;49406;51.044;3.766;2023-06-14T11:26:11;101594.69;;;32.60;23.79
63281;BME280;49406;51.044;3.766;2023-06-14T11:28:46;101595.30;;;32.49;23.13
63281;BME280;49406;51.044;3.766;2023-06-14T11:31:21;101592.20;;;32.35;22.90
63281;BME280;49406;51.044;3.766;2023-06-14T11:33:57;101583.93;;;32.34;22.84
63281;BME280;49406;51.044;3.766;2023-06-14T11:36:33;101581.67;;;32.37;23.01
63281;BME280;49406;51.044;3.766;2023-06-14T11:39:08;101583.35;;;32.56;23.78
63281;BME280;49406;51.044;3.766;2023-06-14T11:41:45;101577.59;;;32.69;24.18
63281;BME280;49406;51.044;3.766;2023-06-14T11:44:20;101580.36;;;32.58;23.59
63281;BME280;49406;51.044;3.766;2023-06-14T11:46:55;101579.75;;;32.46;23.53
63281;BME280;49406;51.044;3.766;2023-06-14T11:49:30;101575.02;;;32.32;23.01
63281;BME280;49406;51.044;3.766;2023-06-14T11:52:09;101573.63;;;32.26;23.61
63281;BME280;49406;51.044;3.766;2023-06-14T11:54:44;101575.36;;;32.24;23.14
63281;BME280;49406;51.044;3.766;2023-06-14T11:57:20;101579.64;;;32.30;23.11
63281;BME280;49406;51.044;3.766;2023-06-14T11:59:56;101580.52;;;32.53;23.05
63281;BME280;49406;51.044;3.766;2023-06-14T12:02:32;101581.02;;;32.58;23.23
63281;BME280;49406;51.044;3.766;2023-06-14T12:05:08;101576.60;;;32.58;23.07
63281;BME280;49406;51.044;3.766;2023-06-14T12:07:43;101575.96;;;32.49;23.32
63281;BME280;49406;51.044;3.766;2023-06-14T12:10:18;101574.27;;;32.62;23.38
63281;BME280;49406;51.044;3.766;2023-06-14T12:12:58;101573.37;;;32.74;23.42
63281;BME280;49406;51.044;3.766;2023-06-14T12:15:33;101575.04;;;32.74;23.51
63281;BME280;49406;51.044;3.766;2023-06-14T12:18:08;101573.55;;;32.35;23.14
63281;BME280;49406;51.044;3.766;2023-06-14T12:20:47;101572.79;;;32.35;23.99
63281;BME280;49406;51.044;3.766;2023-06-14T12:23:22;101566.30;;;32.50;23.61
63281;BME280;49406;51.044;3.766;2023-06-14T12:26:00;101569.93;;;32.45;23.49
63281;BME280;49406;51.044;3.766;2023-06-14T12:28:35;101571.20;;;32.37;23.70
63281;BME280;49406;51.044;3.766;2023-06-14T12:31:10;101572.08;;;31.99;24.32
63281;BME280;49406;51.044;3.766;2023-06-14T12:33:46;101569.94;;;31.33;24.40
63281;BME280;49406;51.044;3.766;2023-06-14T12:36:22;101570.83;;;31.22;24.44
63281;BME280;49406;51.044;3.766;2023-06-14T12:38:56;101564.14;;;31.38;24.80
63281;BME280;49406;51.044;3.766;2023-06-14T12:41:31;101564.95;;;31.72;25.56
63281;BME280;49406;51.044;3.766;2023-06-14T12:44:06;101570.98;;;31.91;24.99
63281;BME280;49406;51.044;3.766;2023-06-14T12:46:41;101574.39;;;32.02;24.28
63281;BME280;49406;51.044;3.766;2023-06-14T12:49:16;101570.19;;;32.13;23.92
63281;BME280;49406;51.044;3.766;2023-06-14T12:51:50;101563.20;;;32.12;23.90
63281;BME280;49406;51.044;3.766;2023-06-14T12:54:25;101569.92;;;31.94;24.28
63281;BME280;49406;51.044;3.766;2023-06-14T12:57:00;101568.94;;;31.61;24.81
63281;BME280;49406;51.044;3.766;2023-06-14T12:59:34;101571.38;;;31.39;24.32
63281;BME280;49406;51.044;3.766;2023-06-14T13:02:17;101565.80;;;31.22;24.65
63281;BME280;49406;51.044;3.766;2023-06-14T13:04:52;101563.85;;;31.51;25.31
63281;BME280;49406;51.044;3.766;2023-06-14T13:07:27;101566.90;;;31.59;24.43
63281;BME280;49406;51.044;3.766;2023-06-14T13:10:01;101575.21;;;31.27;24.12
63281;BME280;49406;51.044;3.766;2023-06-14T13:12:36;101577.43;;;31.12;24.75
63281;BME280;49406;51.044;3.766;2023-06-14T13:15:11;101573.42;;;31.29;24.31
63281;BME280;49406;51.044;3.766;2023-06-14T13:17:45;101565.31;;;31.45;24.62
63281;BME280;49406;51.044;3.766;2023-06-14T13:20:20;101567.33;;;31.69;25.29
63281;BME280;49406;51.044;3.766;2023-06-14T13:22:54;101563.89;;;31.79;24.70
63281;BME280;49406;51.044;3.766;2023-06-14T13:25:29;101561.80;;;31.70;24.91
63281;BME280;49406;51.044;3.766;2023-06-14T13:28:05;101567.63;;;31.82;25.25
63281;BME280;49406;51.044;3.766;2023-06-14T13:30:40;101566.14;;;32.16;24.10
63281;BME280;49406;51.044;3.766;2023-06-14T13:33:14;101568.30;;;32.17;23.27
63281;BME280;49406;51.044;3.766;2023-06-14T13:35:47;101565.91;;;32.15;23.46